createdAt,value
2023-05-13T00:00:37.241Z,68.30
2023-05-13T00:01:37.258Z,68.80
2023-05-13T00:02:37.305Z,68.30
2023-05-13T00:03:37.341Z,68.20
2023-05-13T00:04:37.232Z,68.43
2023-05-13T00:05:37.278Z,69.24
2023-05-13T00:06:37.302Z,69.24
2023-05-13T00:07:37.188Z,69.04
2023-05-13T00:08:44.815Z,68.71
2023-05-13T00:09:37.147Z,69.21
2023-05-13T00:10:37.199Z,68.91
2023-05-13T00:11:37.137Z,68.43
2023-05-13T00:12:37.138Z,68.63
2023-05-13T00:13:37.141Z,69.14
2023-05-13T00:14:37.101Z,69.04
2023-05-13T00:15:37.108Z,69.58
2023-05-13T00:16:37.137Z,69.27
2023-05-13T00:17:38.092Z,69.78
2023-05-13T00:18:37.105Z,70.18
2023-05-13T00:19:37.073Z,69.89
2023-05-13T00:20:37.030Z,69.89
2023-05-13T00:21:37.045Z,70.18
2023-05-13T00:22:37.014Z,70.12
2023-05-13T00:23:37.023Z,71.20
2023-05-13T00:24:36.997Z,70.59
2023-05-13T00:25:37.005Z,70.49
2023-05-13T00:26:36.965Z,69.98
2023-05-13T00:27:36.952Z,69.89
2023-05-13T00:28:36.996Z,69.89
2023-05-13T00:29:36.964Z,69.38
2023-05-13T00:30:36.942Z,69.48
2023-05-13T00:31:37.007Z,69.45
2023-05-13T00:32:36.952Z,69.04
2023-05-13T00:33:36.900Z,69.24
2023-05-13T00:34:36.914Z,69.18
2023-05-13T00:35:37.215Z,69.34
2023-05-13T00:36:36.867Z,69.34
2023-05-13T00:37:36.883Z,69.68
2023-05-13T00:38:36.846Z,69.48
2023-05-13T00:39:36.823Z,69.68
2023-05-13T00:40:36.824Z,69.18
2023-05-13T00:41:36.829Z,69.18
2023-05-13T00:42:36.818Z,69.48
2023-05-13T00:43:36.779Z,69.58
2023-05-13T00:44:36.782Z,69.68
2023-05-13T00:45:36.764Z,69.78
2023-05-13T00:46:36.765Z,70.39
2023-05-13T00:47:36.815Z,69.78
2023-05-13T00:48:36.786Z,69.98
2023-05-13T00:49:36.727Z,69.48
2023-05-13T00:50:36.715Z,69.38
2023-05-13T00:51:36.699Z,69.78
2023-05-13T00:52:36.694Z,70.49
2023-05-13T00:53:36.744Z,69.58
2023-05-13T00:54:36.739Z,69.48
2023-05-13T00:55:36.654Z,69.51
2023-05-13T00:56:36.638Z,69.41
2023-05-13T00:57:36.634Z,69.71
2023-05-13T00:58:36.636Z,69.44
2023-05-13T00:59:36.635Z,69.65
2023-05-13T01:00:36.629Z,70.05
2023-05-13T01:01:36.777Z,70.65
2023-05-13T01:02:36.658Z,70.65
2023-05-13T01:03:36.622Z,70.25
2023-05-13T01:04:36.570Z,70.36
2023-05-13T01:05:36.563Z,70.36
2023-05-13T01:06:36.537Z,70.05
2023-05-13T01:07:36.547Z,69.95
2023-05-13T01:08:36.509Z,69.78
2023-05-13T01:09:36.503Z,70.29
2023-05-13T01:10:36.488Z,70.49
2023-05-13T01:11:36.494Z,70.29
2023-05-13T01:12:36.488Z,70.96
2023-05-13T01:13:36.446Z,70.45
2023-05-13T01:14:36.446Z,70.49
2023-05-13T01:15:36.431Z,70.49
2023-05-13T01:16:36.443Z,71.26
2023-05-13T01:17:36.478Z,70.65
2023-05-13T01:18:36.489Z,71.06
2023-05-13T01:19:36.400Z,70.45
2023-05-13T01:20:36.376Z,70.76
2023-05-13T01:21:36.380Z,71.26
2023-05-13T01:22:36.387Z,70.45
2023-05-13T01:23:36.346Z,70.65
2023-05-13T01:24:36.395Z,70.86
2023-05-13T01:25:36.319Z,70.96
2023-05-13T01:26:36.301Z,70.45
2023-05-13T01:27:36.314Z,70.22
2023-05-13T01:28:36.313Z,69.85
2023-05-13T01:29:36.307Z,69.65
2023-05-13T01:30:36.264Z,69.78
2023-05-13T01:31:36.336Z,70.29
2023-05-13T01:32:36.250Z,70.49
2023-05-13T01:33:36.246Z,70.79
2023-05-13T01:34:36.227Z,71.40
2023-05-13T01:35:36.244Z,70.89
2023-05-13T01:36:36.192Z,71.00
2023-05-13T01:37:36.202Z,70.59
2023-05-13T01:38:36.184Z,71.20
2023-05-13T01:39:36.162Z,71.00
2023-05-13T01:40:36.375Z,71.09
2023-05-13T01:41:36.159Z,70.45
2023-05-13T01:42:36.172Z,70.96
2023-05-13T01:43:36.116Z,70.56
2023-05-13T01:44:36.112Z,70.96
2023-05-13T01:45:36.106Z,71.26
2023-05-13T01:46:36.145Z,71.57
2023-05-13T01:47:36.145Z,70.65
2023-05-13T01:48:36.116Z,70.56
2023-05-13T01:49:36.061Z,70.65
2023-05-13T01:50:36.061Z,71.06
2023-05-13T01:51:36.056Z,71.57
2023-05-13T01:52:36.041Z,71.47
2023-05-13T01:53:36.011Z,70.76
2023-05-13T01:54:36.019Z,70.96
2023-05-13T01:55:35.986Z,70.96
2023-05-13T01:56:35.996Z,71.16
2023-05-13T01:57:35.965Z,70.96
2023-05-13T01:58:35.964Z,70.96
2023-05-13T01:59:35.985Z,70.76
2023-05-13T02:00:35.934Z,70.86
2023-05-13T02:01:35.952Z,70.45
2023-05-13T02:02:36.013Z,70.36
2023-05-13T02:03:35.984Z,70.36
2023-05-13T02:04:35.912Z,70.25
2023-05-13T02:05:35.905Z,70.49
2023-05-13T02:06:35.902Z,71.09
2023-05-13T02:07:35.881Z,70.56
2023-05-13T02:08:35.840Z,70.86
2023-05-13T02:09:35.855Z,71.09
2023-05-13T02:10:35.860Z,71.06
2023-05-13T02:11:35.823Z,70.86
2023-05-13T02:12:35.803Z,71.16
2023-05-13T02:13:35.865Z,70.86
2023-05-13T02:14:35.776Z,70.76
2023-05-13T02:15:35.776Z,70.69
2023-05-13T02:16:35.836Z,70.76
2023-05-13T02:17:35.764Z,70.96
2023-05-13T02:18:35.768Z,70.56
2023-05-13T02:19:35.744Z,70.86
2023-05-13T02:20:35.715Z,71.06
2023-05-13T02:21:35.735Z,70.96
2023-05-13T02:22:35.689Z,70.65
2023-05-13T02:23:35.715Z,70.56
2023-05-13T02:24:35.693Z,70.76
2023-05-13T02:25:35.689Z,70.25
2023-05-13T02:26:35.648Z,71.26
2023-05-13T02:27:35.682Z,70.86
2023-05-13T02:28:35.621Z,70.25
2023-05-13T02:29:35.624Z,70.96
2023-05-13T02:30:35.617Z,69.85
2023-05-13T02:31:35.631Z,69.65
2023-05-13T02:32:35.612Z,70.15
2023-05-13T02:33:35.593Z,69.95
2023-05-13T02:34:35.612Z,70.05
2023-05-13T02:35:35.555Z,70.15
2023-05-13T02:36:35.536Z,69.34
2023-05-13T02:37:35.534Z,70.15
2023-05-13T02:38:35.530Z,69.74
2023-05-13T02:39:35.726Z,69.95
2023-05-13T02:40:35.539Z,69.54
2023-05-13T02:41:35.487Z,69.34
2023-05-13T02:42:35.479Z,69.54
2023-05-13T02:43:35.508Z,68.94
2023-05-13T02:44:35.495Z,68.87
2023-05-13T02:45:35.633Z,68.97
2023-05-13T02:46:35.505Z,68.56
2023-05-13T02:47:35.479Z,68.77
2023-05-13T02:48:35.415Z,68.87
2023-05-13T02:49:35.433Z,68.87
2023-05-13T02:50:35.406Z,69.07
2023-05-13T02:51:35.378Z,69.17
2023-05-13T02:52:35.380Z,69.27
2023-05-13T02:53:35.358Z,69.57
2023-05-13T02:54:35.350Z,69.37
2023-05-13T02:55:35.393Z,69.27
2023-05-13T02:56:35.343Z,69.07
2023-05-13T02:57:35.316Z,69.17
2023-05-13T02:58:35.303Z,69.14
2023-05-13T02:59:35.337Z,69.17
2023-05-13T03:00:35.302Z,68.94
2023-05-13T03:01:35.308Z,69.48
2023-05-13T03:02:35.361Z,69.48
2023-05-13T03:03:35.403Z,69.48
2023-05-13T03:04:35.249Z,69.37
2023-05-13T03:05:35.257Z,69.37
2023-05-13T03:06:35.216Z,69.27
2023-05-13T03:07:35.264Z,69.78
2023-05-13T03:08:35.236Z,70.29
2023-05-13T03:09:35.190Z,70.32
2023-05-13T03:10:35.169Z,70.62
2023-05-13T03:11:35.187Z,70.52
2023-05-13T03:12:35.172Z,70.83
2023-05-13T03:13:35.205Z,70.49
2023-05-13T03:14:35.152Z,70.42
2023-05-13T03:15:35.119Z,70.21
2023-05-13T03:16:35.126Z,70.52
2023-05-13T03:17:35.127Z,70.52
2023-05-13T03:18:35.160Z,70.32
2023-05-13T03:19:35.087Z,70.01
2023-05-13T03:20:35.106Z,70.15
2023-05-13T03:21:35.049Z,70.56
2023-05-13T03:22:35.034Z,70.62
2023-05-13T03:23:35.030Z,71.13
2023-05-13T03:24:35.044Z,70.62
2023-05-13T03:25:35.029Z,70.72
2023-05-13T03:26:35.054Z,71.03
2023-05-13T03:27:35.002Z,70.72
2023-05-13T03:28:34.985Z,70.32
2023-05-13T03:29:34.954Z,70.52
2023-05-13T03:30:34.950Z,70.65
2023-05-13T03:31:35.005Z,71.23
2023-05-13T03:32:34.988Z,70.62
2023-05-13T03:33:34.917Z,70.52
2023-05-13T03:34:34.914Z,70.21
2023-05-13T03:35:34.901Z,70.52
2023-05-13T03:36:34.906Z,70.12
2023-05-13T03:37:34.883Z,70.42
2023-05-13T03:38:34.891Z,70.62
2023-05-13T03:39:34.864Z,69.92
2023-05-13T03:40:34.836Z,69.95
2023-05-13T03:41:34.826Z,70.25
2023-05-13T03:42:34.829Z,70.35
2023-05-13T03:43:34.855Z,70.56
2023-05-13T03:44:34.791Z,71.06
2023-05-13T03:45:34.799Z,71.16
2023-05-13T03:46:34.838Z,71.16
2023-05-13T03:47:34.783Z,70.86
2023-05-13T03:48:34.797Z,71.13
2023-05-13T03:49:34.766Z,71.03
2023-05-13T03:50:34.722Z,71.03
2023-05-13T03:51:34.729Z,70.52
2023-05-13T03:52:34.720Z,70.21
2023-05-13T03:53:34.716Z,70.32
2023-05-13T03:54:34.699Z,70.96
2023-05-13T03:55:34.673Z,70.52
2023-05-13T03:56:34.719Z,70.62
2023-05-13T03:57:34.660Z,71.13
2023-05-13T03:58:34.654Z,71.03
2023-05-13T03:59:34.659Z,71.13
2023-05-13T04:00:34.653Z,71.03
2023-05-13T04:01:34.643Z,70.35
2023-05-13T04:02:34.751Z,70.45
2023-05-13T04:03:34.602Z,71.16
2023-05-13T04:04:34.577Z,71.64
2023-05-13T04:05:34.575Z,71.37
2023-05-13T04:06:34.581Z,70.35
2023-05-13T04:07:34.535Z,70.96
2023-05-13T04:08:34.558Z,71.16
2023-05-13T04:09:34.531Z,70.76
2023-05-13T04:10:34.573Z,70.56
2023-05-13T04:11:34.517Z,71.09
2023-05-13T04:12:34.484Z,71.30
2023-05-13T04:13:34.471Z,70.89
2023-05-13T04:14:34.474Z,71.70
2023-05-13T04:15:34.584Z,72.01
2023-05-13T04:16:34.471Z,71.67
2023-05-13T04:17:34.466Z,71.80
2023-05-13T04:18:34.461Z,72.01
2023-05-13T04:19:34.419Z,71.70
2023-05-13T04:20:34.433Z,71.40
2023-05-13T04:21:34.428Z,70.89
2023-05-13T04:22:34.387Z,71.60
2023-05-13T04:23:34.378Z,71.77
2023-05-13T04:24:34.367Z,71.97
2023-05-13T04:25:34.363Z,71.67
2023-05-13T04:26:34.379Z,71.47
2023-05-13T04:27:34.322Z,71.47
2023-05-13T04:28:34.320Z,71.47
2023-05-13T04:29:34.295Z,71.67
2023-05-13T04:30:34.282Z,71.67
2023-05-13T04:31:34.372Z,71.57
2023-05-13T04:32:34.309Z,71.67
2023-05-13T04:33:34.281Z,71.57
2023-05-13T04:34:34.243Z,71.47
2023-05-13T04:35:34.260Z,71.77
2023-05-13T04:36:34.214Z,71.77
2023-05-13T04:37:34.231Z,71.33
2023-05-13T04:38:34.228Z,71.53
2023-05-13T04:39:34.187Z,71.44
2023-05-13T04:40:34.197Z,71.64
2023-05-13T04:41:34.167Z,70.42
2023-05-13T04:42:34.204Z,70.79
2023-05-13T04:43:34.155Z,71.30
2023-05-13T04:44:34.166Z,70.49
2023-05-13T04:45:34.132Z,70.69
2023-05-13T04:46:34.176Z,70.79
2023-05-13T04:47:34.137Z,70.59
2023-05-13T04:48:34.120Z,70.65
2023-05-13T04:49:34.150Z,70.45
2023-05-13T04:50:34.063Z,70.32
2023-05-13T04:51:34.070Z,70.12
2023-05-13T04:52:34.045Z,69.92
2023-05-13T04:53:34.029Z,69.68
2023-05-13T04:54:34.021Z,69.68
2023-05-13T04:55:34.039Z,69.78
2023-05-13T04:56:34.003Z,69.58
2023-05-13T04:57:33.999Z,69.78
2023-05-13T04:58:34.014Z,69.78
2023-05-13T04:59:33.966Z,69.48
2023-05-13T05:00:33.974Z,69.48
2023-05-13T05:01:34.023Z,69.48
2023-05-13T05:02:33.972Z,69.55
2023-05-13T05:03:33.965Z,69.55
2023-05-13T05:04:33.939Z,69.34
2023-05-13T05:05:33.951Z,69.14
2023-05-13T05:06:33.904Z,68.84
2023-05-13T05:07:33.893Z,68.74
2023-05-13T05:08:33.873Z,68.74
2023-05-13T05:09:33.889Z,69.11
2023-05-13T05:10:33.844Z,68.91
2023-05-13T05:11:34.564Z,68.71
2023-05-13T05:12:33.908Z,68.80
2023-05-13T05:13:33.857Z,68.10
2023-05-13T05:14:33.824Z,68.00
2023-05-13T05:15:33.810Z,67.26
2023-05-13T05:16:33.784Z,66.96
2023-05-13T05:17:33.893Z,65.95
2023-05-13T05:18:33.848Z,67.26
2023-05-13T05:19:33.862Z,67.43
2023-05-13T05:20:33.746Z,65.92
2023-05-13T05:21:33.798Z,65.92
2023-05-13T05:22:33.748Z,66.02
2023-05-13T05:23:33.705Z,65.08
2023-05-13T05:24:33.694Z,65.68
2023-05-13T05:25:33.699Z,64.67
2023-05-13T05:26:33.673Z,64.67
2023-05-13T05:27:33.675Z,64.47
2023-05-13T05:28:33.687Z,63.76
2023-05-13T05:29:33.633Z,64.27
2023-05-13T05:30:33.636Z,64.37
2023-05-13T05:31:33.670Z,63.56
2023-05-13T05:32:33.626Z,63.96
2023-05-13T05:33:33.628Z,63.33
2023-05-13T05:34:33.596Z,63.84
2023-05-13T05:35:33.737Z,63.73
2023-05-13T05:36:34.294Z,63.84
2023-05-13T05:37:33.552Z,63.53
2023-05-13T05:38:33.553Z,63.33
2023-05-13T05:39:33.555Z,62.19
2023-05-13T05:40:33.517Z,62.29
2023-05-13T05:41:33.503Z,62.09
2023-05-13T05:42:33.495Z,63.20
2023-05-13T05:43:33.520Z,62.49
2023-05-13T05:44:33.479Z,63.27
2023-05-13T05:45:33.493Z,63.37
2023-05-13T05:46:33.466Z,61.86
2023-05-13T05:47:33.516Z,62.06
2023-05-13T05:48:34.753Z,62.37
2023-05-13T05:49:33.428Z,62.06
2023-05-13T05:50:33.423Z,61.66
2023-05-13T05:51:33.554Z,61.89
2023-05-13T05:52:33.380Z,61.79
2023-05-13T05:53:33.375Z,61.86
2023-05-13T05:54:33.358Z,61.86
2023-05-13T05:55:33.365Z,62.06
2023-05-13T05:56:33.360Z,62.16
2023-05-13T05:57:33.335Z,61.56
2023-05-13T05:58:33.338Z,61.56
2023-05-13T05:59:33.309Z,61.96
2023-05-13T06:00:33.400Z,61.05
2023-05-13T06:01:33.310Z,62.06
2023-05-13T06:02:33.414Z,61.83
2023-05-13T06:03:33.402Z,62.04
2023-05-13T06:04:33.298Z,61.83
2023-05-13T06:05:33.263Z,61.03
2023-05-13T06:06:33.301Z,60.63
2023-05-13T06:07:33.254Z,60.72
2023-05-13T06:08:33.226Z,60.32
2023-05-13T06:09:33.213Z,61.60
2023-05-13T06:10:33.205Z,60.93
2023-05-13T06:11:33.205Z,60.93
2023-05-13T06:12:33.182Z,61.13
2023-05-13T06:13:33.164Z,60.60
2023-05-13T06:14:33.153Z,60.39
2023-05-13T06:15:33.159Z,60.19
2023-05-13T06:16:33.227Z,60.72
2023-05-13T06:17:33.140Z,59.89
2023-05-13T06:18:33.142Z,60.29
2023-05-13T06:19:33.109Z,59.89
2023-05-13T06:20:33.112Z,59.69
2023-05-13T06:21:33.083Z,59.79
2023-05-13T06:22:33.065Z,59.89
2023-05-13T06:23:33.063Z,59.08
2023-05-13T06:24:33.047Z,59.26
2023-05-13T06:25:33.035Z,59.16
2023-05-13T06:26:33.055Z,58.35
2023-05-13T06:27:33.018Z,58.45
2023-05-13T06:28:33.005Z,58.55
2023-05-13T06:29:32.987Z,59.26
2023-05-13T06:30:32.993Z,59.43
2023-05-13T06:31:33.007Z,59.23
2023-05-13T06:32:33.046Z,57.92
2023-05-13T06:33:33.042Z,58.35
2023-05-13T06:34:32.959Z,58.62
2023-05-13T06:35:32.952Z,59.13
2023-05-13T06:36:32.911Z,58.02
2023-05-13T06:37:32.921Z,58.42
2023-05-13T06:38:32.882Z,57.12
2023-05-13T06:39:32.916Z,56.62
2023-05-13T06:40:32.872Z,57.02
2023-05-13T06:41:32.856Z,57.82
2023-05-13T06:42:32.854Z,57.79
2023-05-13T06:43:32.834Z,58.09
2023-05-13T06:44:32.829Z,57.57
2023-05-13T06:45:32.835Z,57.70
2023-05-13T06:46:32.830Z,58.07
2023-05-13T06:47:32.807Z,57.26
2023-05-13T06:48:32.783Z,57.37
2023-05-13T06:49:32.791Z,58.07
2023-05-13T06:50:32.765Z,56.06
2023-05-13T06:51:32.747Z,57.09
2023-05-13T06:52:32.749Z,57.09
2023-05-13T06:53:32.739Z,56.99
2023-05-13T06:54:32.720Z,55.38
2023-05-13T06:55:32.730Z,56.49
2023-05-13T06:56:32.708Z,56.76
2023-05-13T06:57:41.850Z,56.56
2023-05-13T06:58:33.687Z,55.76
2023-05-13T06:59:32.672Z,55.76
2023-05-13T07:00:32.643Z,56.16
2023-05-13T07:01:32.697Z,54.15
2023-05-13T07:02:32.683Z,54.96
2023-05-13T07:03:32.640Z,54.65
2023-05-13T07:04:32.600Z,53.82
2023-05-13T07:05:32.596Z,54.02
2023-05-13T07:06:32.574Z,54.02
2023-05-13T07:07:32.564Z,53.80
2023-05-13T07:08:32.577Z,54.30
2023-05-13T07:09:32.561Z,53.67
2023-05-13T07:10:32.542Z,53.17
2023-05-13T07:11:32.559Z,52.67
2023-05-13T07:12:32.516Z,53.27
2023-05-13T07:13:32.502Z,53.47
2023-05-13T07:14:32.498Z,52.47
2023-05-13T07:15:32.486Z,52.07
2023-05-13T07:16:32.500Z,51.97
2023-05-13T07:17:32.656Z,52.24
2023-05-13T07:18:32.596Z,52.94
2023-05-13T07:19:32.427Z,52.64
2023-05-13T07:20:32.450Z,52.77
2023-05-13T07:21:32.408Z,52.77
2023-05-13T07:22:32.406Z,52.44
2023-05-13T07:23:32.409Z,52.55
2023-05-13T07:24:32.372Z,53.14
2023-05-13T07:25:32.380Z,52.24
2023-05-13T07:26:32.370Z,51.94
2023-05-13T07:27:32.356Z,51.72
2023-05-13T07:28:32.345Z,52.82
2023-05-13T07:29:32.358Z,52.39
2023-05-13T07:30:32.406Z,52.22
2023-05-13T07:31:32.307Z,51.51
2023-05-13T07:32:32.321Z,51.12
2023-05-13T07:33:32.276Z,51.12
2023-05-13T07:34:32.267Z,52.82
2023-05-13T07:35:32.252Z,52.19
2023-05-13T07:36:32.285Z,49.91
2023-05-13T07:37:32.234Z,50.11
2023-05-13T07:38:32.233Z,49.99
2023-05-13T07:39:32.218Z,50.31
2023-05-13T07:40:32.223Z,50.11
2023-05-13T07:41:32.217Z,49.71
2023-05-13T07:42:32.200Z,49.69
2023-05-13T07:43:32.183Z,49.99
2023-05-13T07:44:32.154Z,49.96
2023-05-13T07:45:32.167Z,49.57
2023-05-13T07:46:32.180Z,49.46
2023-05-13T07:47:32.172Z,48.46
2023-05-13T07:48:32.108Z,48.38
2023-05-13T07:49:32.105Z,48.96
2023-05-13T07:50:32.125Z,49.08
2023-05-13T07:51:32.080Z,48.57
2023-05-13T07:52:32.068Z,49.16
2023-05-13T07:53:32.060Z,48.86
2023-05-13T07:54:32.056Z,49.07
2023-05-13T07:55:32.057Z,47.66
2023-05-13T07:56:32.032Z,48.84
2023-05-13T07:57:32.027Z,47.36
2023-05-13T07:58:32.017Z,48.34
2023-05-13T07:59:32.030Z,48.84
2023-05-13T08:00:31.987Z,48.84
2023-05-13T08:01:31.996Z,48.34
2023-05-13T08:02:32.017Z,47.74
2023-05-13T08:03:32.133Z,47.52
2023-05-13T08:04:32.002Z,47.34
2023-05-13T08:05:31.930Z,47.94
2023-05-13T08:06:32.837Z,47.84
2023-05-13T08:07:31.991Z,47.54
2023-05-13T08:08:31.906Z,47.54
2023-05-13T08:09:31.878Z,47.54
2023-05-13T08:10:31.867Z,47.54
2023-05-13T08:11:31.862Z,47.54
2023-05-13T08:12:31.856Z,48.64
2023-05-13T08:13:31.872Z,48.84
2023-05-13T08:14:31.836Z,48.54
2023-05-13T08:15:31.859Z,48.92
2023-05-13T08:16:31.961Z,48.61
2023-05-13T08:17:31.795Z,48.79
2023-05-13T08:18:31.837Z,48.90
2023-05-13T08:19:31.770Z,49.90
2023-05-13T08:20:31.766Z,48.10
2023-05-13T08:21:31.776Z,47.61
2023-05-13T08:22:31.734Z,48.90
2023-05-13T08:23:44.280Z,48.61
2023-05-13T08:24:32.726Z,49.19
2023-05-13T08:25:31.712Z,48.79
2023-05-13T08:26:31.709Z,48.79
2023-05-13T08:27:31.711Z,48.77
2023-05-13T08:28:31.671Z,48.29
2023-05-13T08:29:31.653Z,48.60
2023-05-13T08:30:31.669Z,47.60
2023-05-13T08:31:31.714Z,48.82
2023-05-13T08:32:31.670Z,49.09
2023-05-13T08:33:31.667Z,48.69
2023-05-13T08:34:31.621Z,49.19
2023-05-13T08:35:31.597Z,49.19
2023-05-13T08:36:31.612Z,49.41
2023-05-13T08:37:31.591Z,48.74
2023-05-13T08:38:31.586Z,49.62
2023-05-13T08:39:31.551Z,49.94
2023-05-13T08:40:31.535Z,48.74
2023-05-13T08:41:31.550Z,49.02
2023-05-13T08:42:31.548Z,48.92
2023-05-13T08:43:31.526Z,48.42
2023-05-13T08:44:31.495Z,49.52
2023-05-13T08:45:31.489Z,50.42
2023-05-13T08:46:31.673Z,48.92
2023-05-13T08:47:31.599Z,50.54
2023-05-13T08:48:31.469Z,49.72
2023-05-13T08:49:31.461Z,48.92
2023-05-13T08:50:31.436Z,49.52
2023-05-13T08:51:31.417Z,49.22
2023-05-13T08:52:31.416Z,49.59
2023-05-13T08:53:31.446Z,50.39
2023-05-13T08:54:31.400Z,49.59
2023-05-13T08:55:31.392Z,48.39
2023-05-13T08:56:31.397Z,48.49
2023-05-13T08:57:31.356Z,48.90
2023-05-13T08:58:31.478Z,48.69
2023-05-13T08:59:31.345Z,48.92
2023-05-13T09:00:31.336Z,48.22
2023-05-13T09:01:31.502Z,48.49
2023-05-13T09:02:31.323Z,48.29
2023-05-13T09:03:31.314Z,47.61
2023-05-13T09:04:31.508Z,47.72
2023-05-13T09:05:31.302Z,48.61
2023-05-13T09:06:31.297Z,48.49
2023-05-13T09:07:31.271Z,47.49
2023-05-13T09:08:31.233Z,48.60
2023-05-13T09:09:31.222Z,49.29
2023-05-13T09:10:31.259Z,47.97
2023-05-13T09:11:31.209Z,47.77
2023-05-13T09:12:31.210Z,48.07
2023-05-13T09:13:31.178Z,48.35
2023-05-13T09:14:31.188Z,46.37
2023-05-13T09:15:31.157Z,47.87
2023-05-13T09:16:31.177Z,47.45
2023-05-13T09:17:31.221Z,47.63
2023-05-13T09:18:31.263Z,46.35
2023-05-13T09:19:31.291Z,47.99
2023-05-13T09:20:31.104Z,47.89
2023-05-13T09:21:31.118Z,47.49
2023-05-13T09:22:31.089Z,47.89
2023-05-13T09:23:31.081Z,47.37
2023-05-13T09:24:31.063Z,47.47
2023-05-13T09:25:31.057Z,47.67
2023-05-13T09:26:31.032Z,47.45
2023-05-13T09:27:31.044Z,47.55
2023-05-13T09:28:31.026Z,46.65
2023-05-13T09:29:31.050Z,46.95
2023-05-13T09:30:31.046Z,46.45
2023-05-13T09:31:31.027Z,46.75
2023-05-13T09:32:31.011Z,47.53
2023-05-13T09:33:31.478Z,47.42
2023-05-13T09:34:30.952Z,46.33
2023-05-13T09:35:30.986Z,45.63
2023-05-13T09:36:30.939Z,46.75
2023-05-13T09:37:30.915Z,47.07
2023-05-13T09:38:30.918Z,46.50
2023-05-13T09:39:32.292Z,47.49
2023-05-13T09:40:30.894Z,47.37
2023-05-13T09:41:30.892Z,47.47
2023-05-13T09:42:30.856Z,46.95
2023-05-13T09:43:30.846Z,46.85
2023-05-13T09:44:30.834Z,47.05
2023-05-13T09:45:30.848Z,46.55
2023-05-13T09:46:30.852Z,46.05
2023-05-13T09:47:31.447Z,45.93
2023-05-13T09:48:30.796Z,46.55
2023-05-13T09:49:30.779Z,47.10
2023-05-13T09:50:30.794Z,46.70
2023-05-13T09:51:30.789Z,45.90
2023-05-13T09:52:30.760Z,46.41
2023-05-13T09:53:30.746Z,46.11
2023-05-13T09:54:33.052Z,45.48
2023-05-13T09:55:30.732Z,45.59
2023-05-13T09:56:30.703Z,45.47
2023-05-13T09:57:30.709Z,44.89
2023-05-13T09:58:30.827Z,47.18
2023-05-13T09:59:30.751Z,45.48
2023-05-13T10:00:32.926Z,45.90
2023-05-13T10:01:30.680Z,45.40
2023-05-13T10:02:30.667Z,45.31
2023-05-13T10:03:30.674Z,44.93
2023-05-13T10:04:30.629Z,45.73
2023-05-13T10:05:30.620Z,44.61
2023-05-13T10:06:30.642Z,45.31
2023-05-13T10:07:30.604Z,43.99
2023-05-13T10:08:30.585Z,44.89
2023-05-13T10:09:38.238Z,44.96
2023-05-13T10:10:30.560Z,44.17
2023-05-13T10:11:30.562Z,43.97
2023-05-13T10:12:30.587Z,44.87
2023-05-13T10:13:30.522Z,44.31
2023-05-13T10:14:30.515Z,44.61
2023-05-13T10:15:30.498Z,45.01
2023-05-13T10:16:30.528Z,44.91
2023-05-13T10:17:30.540Z,45.53
2023-05-13T10:18:30.525Z,45.73
2023-05-13T10:19:30.458Z,45.33
2023-05-13T10:20:30.454Z,45.45
2023-05-13T10:21:30.435Z,46.09
2023-05-13T10:22:30.428Z,46.59
2023-05-13T10:23:30.429Z,46.17
2023-05-13T10:24:30.430Z,45.57
2023-05-13T10:25:30.401Z,45.17
2023-05-13T10:26:30.391Z,44.65
2023-05-13T10:27:30.375Z,45.15
2023-05-13T10:28:30.366Z,45.23
2023-05-13T10:29:30.385Z,45.71
2023-05-13T10:30:30.342Z,43.41
2023-05-13T10:31:30.369Z,44.38
2023-05-13T10:32:30.385Z,43.59
2023-05-13T10:33:30.314Z,44.21
2023-05-13T10:34:30.300Z,44.29
2023-05-13T10:35:30.305Z,44.29
2023-05-13T10:36:30.273Z,44.38
2023-05-13T10:37:30.267Z,43.99
2023-05-13T10:38:30.253Z,44.27
2023-05-13T10:39:30.264Z,43.79
2023-05-13T10:40:30.252Z,43.47
2023-05-13T10:41:30.212Z,44.46
2023-05-13T10:42:30.210Z,43.27
2023-05-13T10:43:30.213Z,42.87
2023-05-13T10:44:30.173Z,43.77
2023-05-13T10:45:30.170Z,43.17
2023-05-13T10:46:30.262Z,43.29
2023-05-13T10:47:30.186Z,43.29
2023-05-13T10:48:30.224Z,44.21
2023-05-13T10:49:30.158Z,43.83
2023-05-13T10:50:30.122Z,44.61
2023-05-13T10:51:30.127Z,44.61
2023-05-13T10:52:30.111Z,43.31
2023-05-13T10:53:30.077Z,43.21
2023-05-13T10:54:30.083Z,44.11
2023-05-13T10:55:30.089Z,44.01
2023-05-13T10:56:30.046Z,44.09
2023-05-13T10:57:30.056Z,44.57
2023-05-13T10:58:30.045Z,43.61
2023-05-13T10:59:30.024Z,44.11
2023-05-13T11:00:30.063Z,44.11
2023-05-13T11:01:30.111Z,45.21
2023-05-13T11:02:30.058Z,43.81
2023-05-13T11:03:30.113Z,44.31
2023-05-13T11:04:29.955Z,43.81
2023-05-13T11:05:29.951Z,43.89
2023-05-13T11:06:29.968Z,44.19
2023-05-13T11:07:29.959Z,43.59
2023-05-13T11:08:29.926Z,43.99
2023-05-13T11:09:29.931Z,43.99
2023-05-13T11:10:29.902Z,44.67
2023-05-13T11:11:29.937Z,43.87
2023-05-13T11:12:29.874Z,43.65
2023-05-13T11:13:29.860Z,43.65
2023-05-13T11:14:29.873Z,42.95
2023-05-13T11:15:29.839Z,42.47
2023-05-13T11:16:29.868Z,44.09
2023-05-13T11:17:29.861Z,43.57
2023-05-13T11:18:29.830Z,43.47
2023-05-13T11:19:29.875Z,42.77
2023-05-13T11:20:30.488Z,42.67
2023-05-13T11:21:29.780Z,43.27
2023-05-13T11:22:29.791Z,42.97
2023-05-13T11:23:29.758Z,43.77
2023-05-13T11:24:29.763Z,42.89
2023-05-13T11:25:29.732Z,43.67
2023-05-13T11:26:29.730Z,43.87
2023-05-13T11:27:29.734Z,42.47
2023-05-13T11:28:29.704Z,43.27
2023-05-13T11:29:29.830Z,43.47
2023-05-13T11:30:29.693Z,42.67
2023-05-13T11:31:29.724Z,43.09
2023-05-13T11:32:29.678Z,43.79
2023-05-13T11:33:29.645Z,44.21
2023-05-13T11:34:29.898Z,44.21
2023-05-13T11:35:29.654Z,43.93
2023-05-13T11:36:29.622Z,44.31
2023-05-13T11:37:29.608Z,44.11
2023-05-13T11:38:29.606Z,43.91
2023-05-13T11:39:29.586Z,44.21
2023-05-13T11:40:29.594Z,44.91
2023-05-13T11:41:29.586Z,44.49
2023-05-13T11:42:29.587Z,43.79
2023-05-13T11:43:29.569Z,43.81
2023-05-13T11:44:29.603Z,43.31
2023-05-13T11:45:29.674Z,44.41
2023-05-13T11:46:29.541Z,43.61
2023-05-13T11:47:29.587Z,43.01
2023-05-13T11:48:29.508Z,43.83
2023-05-13T11:49:29.506Z,43.09
2023-05-13T11:50:29.492Z,43.31
2023-05-13T11:51:29.458Z,42.81
2023-05-13T11:52:29.450Z,43.79
2023-05-13T11:53:29.431Z,43.47
2023-05-13T11:54:29.414Z,43.57
2023-05-13T11:55:29.427Z,43.29
2023-05-13T11:56:29.390Z,43.67
2023-05-13T11:57:29.385Z,43.27
2023-05-13T11:58:29.386Z,43.29
2023-05-13T11:59:38.576Z,44.09
2023-05-13T12:00:30.370Z,44.79
2023-05-13T12:01:29.361Z,44.27
2023-05-13T12:02:29.480Z,44.49
2023-05-13T12:03:29.390Z,44.38
2023-05-13T12:04:29.313Z,44.09
2023-05-13T12:05:29.364Z,43.99
2023-05-13T12:06:29.293Z,43.67
2023-05-13T12:07:29.291Z,43.77
2023-05-13T12:08:29.304Z,42.97
2023-05-13T12:09:29.255Z,42.77
2023-05-13T12:10:29.244Z,42.87
2023-05-13T12:11:29.263Z,41.58
2023-05-13T12:12:29.232Z,42.77
2023-05-13T12:13:29.222Z,42.67
2023-05-13T12:14:29.197Z,44.15
2023-05-13T12:15:29.223Z,42.15
2023-05-13T12:16:29.330Z,43.35
2023-05-13T12:17:29.239Z,42.85
2023-05-13T12:18:29.225Z,41.75
2023-05-13T12:19:29.164Z,42.13
2023-05-13T12:20:29.136Z,41.33
2023-05-13T12:21:29.120Z,41.66
2023-05-13T12:22:29.128Z,41.66
2023-05-13T12:23:29.125Z,41.74
2023-05-13T12:24:29.114Z,41.03
2023-05-13T12:25:29.100Z,41.33
2023-05-13T12:26:29.106Z,41.24
2023-05-13T12:27:29.058Z,40.64
2023-05-13T12:28:29.060Z,41.36
2023-05-13T12:29:29.038Z,41.66
2023-05-13T12:30:29.042Z,41.66
2023-05-13T12:31:29.093Z,41.28
2023-05-13T12:32:29.105Z,41.08
2023-05-13T12:33:28.991Z,41.58
2023-05-13T12:34:28.990Z,41.08
2023-05-13T12:35:28.970Z,41.28
2023-05-13T12:36:29.026Z,41.85
2023-05-13T12:37:28.952Z,41.85
2023-05-13T12:38:28.953Z,41.28
2023-05-13T12:39:28.954Z,41.16
2023-05-13T12:40:28.975Z,39.78
2023-05-13T12:41:28.929Z,40.86
2023-05-13T12:42:28.934Z,41.33
2023-05-13T12:43:28.880Z,41.44
2023-05-13T12:44:28.896Z,40.92
2023-05-13T12:45:28.862Z,39.72
2023-05-13T12:46:28.932Z,40.62
2023-05-13T12:47:28.901Z,41.00
2023-05-13T12:48:28.848Z,39.70
2023-05-13T12:49:28.815Z,40.20
2023-05-13T12:50:28.828Z,40.78
2023-05-13T12:51:28.813Z,39.29
2023-05-13T12:52:28.800Z,40.18